createdAt,value
2022-11-21T00:01:23.264Z,74.47
2022-11-21T00:03:51.149Z,75.88
2022-11-21T00:06:19.547Z,79.18
2022-11-21T00:08:47.222Z,79.50
2022-11-21T00:11:14.762Z,75.78
2022-11-21T00:13:43.104Z,81.07
2022-11-21T00:16:12.982Z,81.70
2022-11-21T00:18:40.643Z,83.10
2022-11-21T00:21:10.667Z,75.70
2022-11-21T00:23:38.210Z,80.07
2022-11-21T00:26:07.122Z,81.10
2022-11-21T00:28:35.577Z,79.55
2022-11-21T00:31:04.643Z,83.57
2022-11-21T00:33:34.476Z,77.82
2022-11-21T00:36:09.664Z,81.65
2022-11-21T00:38:40.916Z,81.90
2022-11-21T00:41:08.179Z,86.47
2022-11-21T00:43:36.528Z,82.72
2022-11-21T00:46:04.913Z,86.43
2022-11-21T00:48:34.532Z,81.88
2022-11-21T00:51:04.116Z,88.50
2022-11-21T00:53:37.646Z,83.50
2022-11-21T00:56:05.207Z,86.53
2022-11-21T00:58:35.070Z,88.60
2022-11-21T01:03:49.983Z,94.30
2022-11-21T01:06:17.272Z,89.15
2022-11-21T01:08:45.833Z,89.10
2022-11-21T01:11:16.444Z,94.28
2022-11-21T01:13:44.465Z,98.97
2022-11-21T01:16:20.269Z,96.35
2022-11-21T01:18:47.717Z,102.78
2022-11-21T01:21:22.781Z,98.72
2022-11-21T01:23:51.173Z,91.95
2022-11-21T01:26:21.162Z,92.35
2022-11-21T01:28:48.676Z,94.38
2022-11-21T01:31:20.054Z,95.45
2022-11-21T01:33:48.225Z,98.18
2022-11-21T01:36:23.994Z,97.75
2022-11-21T01:38:54.439Z,92.90
2022-11-21T01:41:25.051Z,101.60
2022-11-21T01:43:52.720Z,99.68
2022-11-21T01:46:21.940Z,103.78
2022-11-21T01:48:51.969Z,97.13
2022-11-21T01:51:29.290Z,92.53
2022-11-21T01:54:02.523Z,94.90
2022-11-21T01:56:34.029Z,96.97
2022-11-21T01:59:07.097Z,95.40
2022-11-21T02:01:39.298Z,98.25
2022-11-21T02:04:07.882Z,97.68
2022-11-21T02:06:37.698Z,93.75
2022-11-21T02:09:07.394Z,95.55
2022-11-21T02:11:50.755Z,97.05
2022-11-21T02:14:18.480Z,100.65
2022-11-21T02:16:46.772Z,98.82
2022-11-21T02:19:53.654Z,89.20
2022-11-21T02:22:35.416Z,90.45
2022-11-21T02:25:24.806Z,87.65
2022-11-21T02:28:08.902Z,96.95
2022-11-21T02:30:39.871Z,92.25
2022-11-21T02:33:09.035Z,98.50
2022-11-21T02:35:36.424Z,92.53
2022-11-21T02:38:46.223Z,86.72
2022-11-21T02:41:26.960Z,88.40
2022-11-21T02:44:04.632Z,82.03
2022-11-21T02:46:33.740Z,88.55
2022-11-21T02:49:04.785Z,92.55
2022-11-21T02:51:33.719Z,84.97
2022-11-21T02:54:00.838Z,85.88
2022-11-21T02:56:29.224Z,90.38
2022-11-21T02:58:56.837Z,78.32
2022-11-21T03:01:25.100Z,79.32
2022-11-21T03:03:53.612Z,74.47
2022-11-21T03:06:21.725Z,83.60
2022-11-21T03:08:52.215Z,84.35
2022-11-21T03:11:19.672Z,76.32
2022-11-21T03:13:49.536Z,82.90
2022-11-21T03:16:16.936Z,80.38
2022-11-21T03:18:44.531Z,81.57
2022-11-21T03:21:12.808Z,84.65
2022-11-21T03:23:39.979Z,78.07
2022-11-21T03:26:07.545Z,78.45
2022-11-21T03:28:35.195Z,72.68
2022-11-21T03:31:05.276Z,79.35
2022-11-21T03:33:33.795Z,79.70
2022-11-21T03:36:02.470Z,83.05
2022-11-21T03:38:29.570Z,79.10
2022-11-21T03:40:57.434Z,76.15
2022-11-21T03:43:24.717Z,84.07
2022-11-21T03:45:54.970Z,73.45
2022-11-21T03:48:22.157Z,77.07
2022-11-21T03:50:49.452Z,75.97
2022-11-21T03:53:16.782Z,75.03
2022-11-21T03:55:44.424Z,78.63
2022-11-21T03:58:11.721Z,67.38
2022-11-21T04:00:39.204Z,67.97
2022-11-21T04:03:06.251Z,70.82
2022-11-21T04:05:34.256Z,64.25
2022-11-21T04:08:02.557Z,73.70
2022-11-21T04:10:29.860Z,66.50
2022-11-21T04:12:57.349Z,67.88
2022-11-21T04:15:24.520Z,62.22
2022-11-21T04:17:53.254Z,66.50
2022-11-21T04:20:24.879Z,67.68
2022-11-21T04:22:52.493Z,69.50
2022-11-21T04:25:19.966Z,65.05
2022-11-21T04:27:47.107Z,66.60
2022-11-21T04:30:14.772Z,72.22
2022-11-21T04:32:42.908Z,76.53
2022-11-21T04:35:13.707Z,75.70
2022-11-21T04:37:41.146Z,73.28
2022-11-21T04:40:08.931Z,71.40
2022-11-21T04:42:36.377Z,81.07
2022-11-21T04:45:07.552Z,77.72
2022-11-21T04:47:43.931Z,74.60
2022-11-21T04:50:13.173Z,79.43
2022-11-21T04:52:42.195Z,76.97
2022-11-21T04:55:10.652Z,78.18
2022-11-21T04:57:38.018Z,86.95
2022-11-21T05:00:05.741Z,75.40
2022-11-21T05:02:34.337Z,84.38
2022-11-21T05:05:02.313Z,76.63
2022-11-21T05:07:33.613Z,86.72
2022-11-21T05:10:03.560Z,86.15
2022-11-21T05:12:49.672Z,90.70
2022-11-21T05:15:23.199Z,91.07
2022-11-21T05:17:52.538Z,93.72
2022-11-21T05:20:20.632Z,92.70
2022-11-21T05:22:52.603Z,92.00
2022-11-21T05:25:19.902Z,92.95
2022-11-21T05:27:48.370Z,109.63
2022-11-21T05:30:16.135Z,93.55
2022-11-21T05:32:44.411Z,95.38
2022-11-21T05:35:11.803Z,98.63
2022-11-21T05:37:39.072Z,100.65
2022-11-21T05:40:07.456Z,106.00
2022-11-21T05:42:59.157Z,102.45
2022-11-21T05:45:26.472Z,104.43
2022-11-21T05:47:54.783Z,102.25
2022-11-21T05:50:22.400Z,95.55
2022-11-21T05:52:49.558Z,93.30
2022-11-21T05:55:17.396Z,96.22
2022-11-21T05:57:45.571Z,94.72
2022-11-21T06:00:13.840Z,94.60
2022-11-21T06:03:00.356Z,103.25
2022-11-21T06:05:28.013Z,116.47
2022-11-21T06:07:55.939Z,98.50
2022-11-21T06:10:23.673Z,100.97
2022-11-21T06:12:51.780Z,103.88
2022-11-21T06:15:19.098Z,100.55
2022-11-21T06:17:46.653Z,97.35
2022-11-21T06:20:14.576Z,92.43
2022-11-21T06:22:42.032Z,107.80
2022-11-21T06:25:17.044Z,87.63
2022-11-21T06:27:44.952Z,90.50
2022-11-21T06:30:15.485Z,86.22
2022-11-21T06:32:53.711Z,95.32
2022-11-21T06:35:22.118Z,87.60
2022-11-21T06:37:58.369Z,93.03
2022-11-21T06:40:26.214Z,90.30
2022-11-21T06:42:53.493Z,90.32
2022-11-21T06:45:20.967Z,96.10
2022-11-21T06:47:48.806Z,94.70
2022-11-21T06:50:16.497Z,90.60
2022-11-21T06:52:45.074Z,96.57
2022-11-21T06:55:15.356Z,89.50
2022-11-21T06:57:44.878Z,86.75
2022-11-21T07:00:18.187Z,94.45
2022-11-21T07:02:45.644Z,84.82
2022-11-21T07:05:13.396Z,87.60
2022-11-21T07:07:41.034Z,73.63
2022-11-21T07:10:08.711Z,93.30
2022-11-21T07:12:55.456Z,92.53
2022-11-21T07:15:23.361Z,82.63
2022-11-21T07:17:50.655Z,96.35
2022-11-21T07:20:18.789Z,91.60
2022-11-21T07:22:46.003Z,95.28
2022-11-21T07:25:13.355Z,87.45
2022-11-21T07:27:41.394Z,88.60
2022-11-21T07:30:09.522Z,96.88
2022-11-21T07:32:36.673Z,100.70
2022-11-21T07:35:04.689Z,90.57
2022-11-21T07:37:35.949Z,95.20
2022-11-21T07:40:04.799Z,88.55
2022-11-21T07:42:35.568Z,97.90
2022-11-21T07:45:06.217Z,92.90
2022-11-21T07:47:35.378Z,93.53
2022-11-21T07:50:08.348Z,96.47
2022-11-21T07:52:36.128Z,92.22
2022-11-21T07:55:06.558Z,89.38
2022-11-21T07:57:36.199Z,97.78
2022-11-21T08:00:07.244Z,98.25
2022-11-21T08:02:34.681Z,95.90
2022-11-21T08:05:05.115Z,95.95
2022-11-21T08:07:33.964Z,95.50
2022-11-21T08:10:02.110Z,96.60
2022-11-21T08:12:29.740Z,88.38
2022-11-21T08:14:57.116Z,101.45
2022-11-21T08:17:26.699Z,100.25
2022-11-21T08:19:54.004Z,90.63
2022-11-21T08:22:21.325Z,96.40
2022-11-21T08:24:48.437Z,91.13
2022-11-21T08:27:21.015Z,92.18
2022-11-21T08:29:48.642Z,93.88
2022-11-21T08:32:16.191Z,99.55
2022-11-21T08:34:44.717Z,88.78
2022-11-21T08:37:12.095Z,87.40
2022-11-21T08:39:39.258Z,94.30
2022-11-21T08:42:07.348Z,88.63
2022-11-21T08:44:35.471Z,91.93
2022-11-21T08:47:05.207Z,90.05
2022-11-21T08:49:35.360Z,94.90
2022-11-21T08:52:03.580Z,92.43
2022-11-21T08:54:30.863Z,98.10
2022-11-21T08:57:03.643Z,102.20
2022-11-21T08:59:33.790Z,93.70
2022-11-21T09:02:02.448Z,109.13
2022-11-21T09:04:29.899Z,94.47
2022-11-21T09:06:57.737Z,97.85
2022-11-21T09:09:26.413Z,95.80
2022-11-21T09:11:57.219Z,98.78
2022-11-21T09:14:42.905Z,101.65
2022-11-21T09:17:33.676Z,97.20
2022-11-21T09:20:02.763Z,113.18
2022-11-21T09:22:30.280Z,103.65
2022-11-21T09:25:02.566Z,103.78
2022-11-21T09:27:32.352Z,110.68
2022-11-21T09:29:59.535Z,110.25
2022-11-21T09:32:27.515Z,104.43
2022-11-21T09:34:58.404Z,102.32
2022-11-21T09:37:28.576Z,99.72
2022-11-21T09:40:10.069Z,98.10
2022-11-21T09:42:53.935Z,95.93
2022-11-21T09:45:32.229Z,91.50
2022-11-21T09:48:01.025Z,85.28
2022-11-21T09:50:32.681Z,92.72
2022-11-21T09:53:35.410Z,87.82
2022-11-21T09:56:14.450Z,90.60
2022-11-21T09:58:49.217Z,86.90
2022-11-21T10:01:19.485Z,87.47
2022-11-21T10:03:49.538Z,88.82
2022-11-21T10:06:27.720Z,89.53
2022-11-21T10:09:16.263Z,94.28
2022-11-21T10:12:32.170Z,95.93
2022-11-21T10:15:08.624Z,79.90
2022-11-21T10:18:04.449Z,85.60
2022-11-21T10:20:32.351Z,91.13
2022-11-21T10:23:41.792Z,76.47
2022-11-21T10:26:32.764Z,70.43
2022-11-21T10:29:07.356Z,74.75
2022-11-21T10:31:39.392Z,77.00
2022-11-21T10:34:38.836Z,70.80
2022-11-21T10:37:20.086Z,68.20
2022-11-21T10:39:50.933Z,68.57
2022-11-21T10:42:29.155Z,48.65
2022-11-21T10:45:19.692Z,44.63
2022-11-21T10:47:50.669Z,39.58
2022-11-21T10:50:34.768Z,35.97
2022-11-21T10:53:39.550Z,43.25
2022-11-21T10:56:17.414Z,45.38
2022-11-21T10:58:48.496Z,49.13
2022-11-21T11:01:21.952Z,44.17
2022-11-21T11:04:27.790Z,44.70
2022-11-21T11:06:54.131Z,42.83
2022-11-21T11:09:32.378Z,39.80
2022-11-21T11:12:18.776Z,32.20
2022-11-21T11:14:50.980Z,29.23
2022-11-21T11:17:26.688Z,31.90
2022-11-21T11:20:03.107Z,36.00
2022-11-21T11:22:32.029Z,24.27
2022-11-21T11:25:03.909Z,32.17
2022-11-21T11:27:33.330Z,26.75
2022-11-21T11:30:09.518Z,25.23
2022-11-21T11:32:40.904Z,23.58
2022-11-21T11:35:14.704Z,25.23
2022-11-21T11:37:43.137Z,24.35
2022-11-21T11:40:20.285Z,21.75
2022-11-21T11:43:16.872Z,25.83
2022-11-21T11:46:24.955Z,29.23
2022-11-21T11:49:19.376Z,26.52
2022-11-21T11:51:48.785Z,23.57
2022-11-21T11:54:22.411Z,24.15
2022-11-21T11:56:51.420Z,22.85
2022-11-21T11:59:29.413Z,22.23
2022-11-21T12:02:12.339Z,19.25
2022-11-21T12:04:52.101Z,24.20
2022-11-21T12:10:35.820Z,20.90
2022-11-21T12:13:07.815Z,15.27
2022-11-21T12:15:49.037Z,16.30
2022-11-21T12:18:16.697Z,22.23
2022-11-21T12:21:03.919Z,13.30
2022-11-21T12:23:37.506Z,15.40
2022-11-21T12:26:11.172Z,21.58
2022-11-21T12:28:58.697Z,12.07
2022-11-21T12:31:26.459Z,17.45
2022-11-21T12:34:04.221Z,14.48
2022-11-21T12:36:50.398Z,18.73
2022-11-21T12:39:25.576Z,12.27
2022-11-21T12:42:20.132Z,20.33
2022-11-21T12:45:10.380Z,8.63
2022-11-21T12:48:12.837Z,14.98
2022-11-21T12:51:06.211Z,15.07
2022-11-21T12:57:30.926Z,10.70
2022-11-21T13:00:16.171Z,11.20
2022-11-21T13:05:52.563Z,12.52
2022-11-21T13:08:25.473Z,12.07
2022-11-21T13:11:33.500Z,14.98
2022-11-21T13:14:08.604Z,15.52
2022-11-21T13:16:39.941Z,16.30
2022-11-21T13:19:19.515Z,12.60
2022-11-21T13:21:48.995Z,11.88
2022-11-21T13:24:35.346Z,18.02
2022-11-21T13:27:04.209Z,17.80
2022-11-21T13:29:32.230Z,13.60
2022-11-21T13:32:00.430Z,19.00
2022-11-21T13:34:35.248Z,19.65
2022-11-21T13:37:03.990Z,15.50
2022-11-21T13:39:34.263Z,17.45
2022-11-21T13:42:24.703Z,18.70
2022-11-21T13:45:22.318Z,22.15
2022-11-21T13:48:08.307Z,11.98
2022-11-21T13:50:46.623Z,20.52
2022-11-21T13:53:30.080Z,20.83
2022-11-21T13:56:00.610Z,17.45
2022-11-21T13:58:28.022Z,19.60
2022-11-21T14:01:14.539Z,12.68
2022-11-21T14:04:05.025Z,15.65
2022-11-21T14:06:46.037Z,19.02
2022-11-21T14:09:13.611Z,18.10
2022-11-21T14:11:48.568Z,15.10
2022-11-21T14:14:39.080Z,17.73
2022-11-21T14:17:35.574Z,15.52
2022-11-21T14:24:11.148Z,22.92
2022-11-21T14:26:47.607Z,19.70
2022-11-21T14:29:49.782Z,15.45
2022-11-21T14:32:21.682Z,14.60
2022-11-21T14:34:57.392Z,14.13
2022-11-21T14:37:25.463Z,15.35
2022-11-21T14:40:13.393Z,17.08
2022-11-21T14:43:10.814Z,17.17
2022-11-21T14:45:49.984Z,18.40
2022-11-21T14:48:26.565Z,26.98
2022-11-21T14:50:59.093Z,17.02
2022-11-21T14:53:27.626Z,25.98
2022-11-21T14:56:00.092Z,13.75
2022-11-21T14:58:30.541Z,16.08
2022-11-21T15:01:05.036Z,19.30
2022-11-21T15:06:27.376Z,20.83
2022-11-21T15:10:05.724Z,16.20
2022-11-21T15:11:48.072Z,20.42
2022-11-21T15:14:19.346Z,18.13
2022-11-21T15:16:52.670Z,14.32
2022-11-21T15:19:38.756Z,12.00
2022-11-21T15:22:06.747Z,16.38
2022-11-21T15:24:37.645Z,19.85
2022-11-21T15:27:44.040Z,15.88
2022-11-21T15:30:13.704Z,19.50
2022-11-21T15:33:04.193Z,20.17
2022-11-21T15:35:41.987Z,17.13
2022-11-21T15:38:15.934Z,13.50
2022-11-21T15:40:56.889Z,13.02
2022-11-21T15:43:36.690Z,16.15
2022-11-21T15:46:06.891Z,12.13
2022-11-21T15:48:37.635Z,14.73
2022-11-21T15:51:05.910Z,17.08
2022-11-21T15:53:36.141Z,10.65
2022-11-21T15:56:05.860Z,10.70
2022-11-21T15:58:35.333Z,12.35
2022-11-21T16:01:04.540Z,12.07
2022-11-21T16:03:33.921Z,9.57
2022-11-21T16:06:02.928Z,15.30
2022-11-21T16:08:36.376Z,13.93
2022-11-21T16:11:04.693Z,9.98
2022-11-21T16:13:34.272Z,11.48
2022-11-21T16:16:07.666Z,10.98
2022-11-21T16:18:35.680Z,8.50
2022-11-21T16:21:07.978Z,9.23
2022-11-21T16:23:35.637Z,12.82
2022-11-21T16:26:04.708Z,14.10
2022-11-21T16:28:33.898Z,13.70
2022-11-21T16:31:04.632Z,11.07
2022-11-21T16:33:34.250Z,16.90
2022-11-21T16:36:04.920Z,15.63
2022-11-21T16:41:49.546Z,18.92
2022-11-21T16:44:18.460Z,13.07
2022-11-21T16:46:51.791Z,12.48
2022-11-21T16:49:20.376Z,10.52
2022-11-21T16:51:59.656Z,17.15
2022-11-21T16:54:27.528Z,9.07
2022-11-21T16:56:55.395Z,11.60
2022-11-21T16:59:23.228Z,15.88
2022-11-21T17:01:51.803Z,16.70
2022-11-21T17:04:19.787Z,15.23
2022-11-21T17:06:49.076Z,16.05
2022-11-21T17:09:19.774Z,11.35
2022-11-21T17:11:48.438Z,19.38
2022-11-21T17:14:16.170Z,13.30
2022-11-21T17:16:44.255Z,15.05
2022-11-21T17:19:12.569Z,14.50
2022-11-21T17:21:40.327Z,12.05
2022-11-21T17:24:08.578Z,10.25
2022-11-21T17:26:38.033Z,9.73
2022-11-21T17:29:06.127Z,12.98
2022-11-21T17:31:35.742Z,7.43
2022-11-21T17:34:04.646Z,12.07
2022-11-21T17:36:35.453Z,8.95
2022-11-21T17:39:04.272Z,18.95
2022-11-21T17:41:32.506Z,10.00
2022-11-21T17:44:17.014Z,5.97
2022-11-21T17:46:44.877Z,19.85
2022-11-21T17:49:27.217Z,11.82
2022-11-21T17:51:56.765Z,11.35
2022-11-21T17:54:25.986Z,15.07
2022-11-21T17:56:56.946Z,11.35
2022-11-21T17:59:26.155Z,13.10
2022-11-21T18:02:00.250Z,10.95
2022-11-21T18:04:30.285Z,8.50
2022-11-21T18:07:39.336Z,12.63
2022-11-21T18:10:54.863Z,12.25
2022-11-21T18:13:22.637Z,10.27
2022-11-21T18:15:53.585Z,13.48
2022-11-21T18:18:22.307Z,11.85
2022-11-21T18:20:51.598Z,13.35
2022-11-21T18:23:22.504Z,13.95
2022-11-21T18:25:54.026Z,11.98
2022-11-21T18:28:26.704Z,9.25
2022-11-21T18:30:54.581Z,11.20
2022-11-21T18:33:22.176Z,10.73
2022-11-21T18:35:49.729Z,13.90
2022-11-21T18:38:40.568Z,12.63
2022-11-21T18:41:05.646Z,11.27
2022-11-21T18:43:34.142Z,10.80
2022-11-21T18:46:08.202Z,15.75
2022-11-21T18:49:00.918Z,11.13
2022-11-21T18:51:25.472Z,17.15
2022-11-21T18:53:57.477Z,14.35
2022-11-21T18:56:25.877Z,12.23
2022-11-21T18:58:58.282Z,17.63
2022-11-21T19:01:29.144Z,14.25
2022-11-21T19:03:57.349Z,12.20
2022-11-21T19:06:26.206Z,14.65
2022-11-21T19:08:54.925Z,14.52
2022-11-21T19:11:27.282Z,13.77
2022-11-21T19:13:55.638Z,29.33
2022-11-21T19:16:25.147Z,15.27
2022-11-21T19:21:42.651Z,15.07
2022-11-21T19:24:30.055Z,13.77
2022-11-21T19:26:57.829Z,15.98
2022-11-21T19:29:30.316Z,14.55
2022-11-21T19:32:02.240Z,12.57
2022-11-21T19:34:30.160Z,13.77
2022-11-21T19:36:58.475Z,12.32
2022-11-21T19:39:37.186Z,17.20
2022-11-21T19:42:05.791Z,11.90
2022-11-21T19:44:34.058Z,16.10
2022-11-21T19:47:02.592Z,17.30
2022-11-21T19:49:30.400Z,11.43
2022-11-21T19:51:58.396Z,16.45
2022-11-21T19:54:29.239Z,11.82
2022-11-21T19:56:56.988Z,13.27
2022-11-21T19:59:25.110Z,13.95
2022-11-21T20:01:55.865Z,17.55
2022-11-21T20:04:31.038Z,13.75
2022-11-21T20:07:07.760Z,16.10
2022-11-21T20:09:36.556Z,13.15
2022-11-21T20:12:04.911Z,15.85
2022-11-21T20:14:33.480Z,20.13
2022-11-21T20:17:01.041Z,14.45
2022-11-21T20:19:30.026Z,14.57
2022-11-21T20:22:00.379Z,18.25
2022-11-21T20:24:28.717Z,16.70
2022-11-21T20:26:59.466Z,17.10
2022-11-21T20:29:27.933Z,18.33
2022-11-21T20:31:59.384Z,15.68
2022-11-21T20:34:27.558Z,18.98
2022-11-21T20:36:55.427Z,17.00
2022-11-21T20:39:25.701Z,21.77
2022-11-21T20:41:53.488Z,21.97
2022-11-21T20:47:09.667Z,19.15
2022-11-21T20:49:38.228Z,17.45
2022-11-21T20:54:54.619Z,20.83
2022-11-21T20:57:22.524Z,15.27
2022-11-21T20:59:50.226Z,20.73
2022-11-21T21:02:17.815Z,22.17
2022-11-21T21:04:46.418Z,16.45
2022-11-21T21:07:14.167Z,18.13
2022-11-21T21:09:42.680Z,17.10
2022-11-21T21:12:10.554Z,28.92
2022-11-21T21:14:38.265Z,18.92
2022-11-21T21:17:06.022Z,15.05
2022-11-21T21:19:34.042Z,20.35
2022-11-21T21:22:02.225Z,25.38
2022-11-21T21:24:30.296Z,23.23
2022-11-21T21:26:57.825Z,18.17
2022-11-21T21:29:28.745Z,21.92
2022-11-21T21:31:56.350Z,16.55
2022-11-21T21:34:24.469Z,22.02
2022-11-21T21:36:52.152Z,22.25
2022-11-21T21:39:20.145Z,16.48
2022-11-21T21:41:48.104Z,20.90
2022-11-21T21:44:16.072Z,17.23
2022-11-21T21:46:44.230Z,18.20
2022-11-21T21:49:12.191Z,18.58
2022-11-21T21:51:40.174Z,19.45
2022-11-21T21:54:08.795Z,21.92
2022-11-21T21:56:36.588Z,18.58
2022-11-21T21:59:04.763Z,23.02
2022-11-21T22:01:33.943Z,17.30
2022-11-21T22:04:03.325Z,20.77
2022-11-21T22:06:33.647Z,17.95
2022-11-21T22:09:02.234Z,23.83
2022-11-21T22:11:30.941Z,20.52
2022-11-21T22:14:04.213Z,18.67
2022-11-21T22:16:32.041Z,21.33
2022-11-21T22:18:59.880Z,23.35
2022-11-21T22:21:29.184Z,22.13
2022-11-21T22:24:27.789Z,17.88
2022-11-21T22:26:47.593Z,21.67
2022-11-21T22:29:15.346Z,19.65
2022-11-21T22:31:42.874Z,14.15
2022-11-21T22:34:14.293Z,26.95
2022-11-21T22:36:41.972Z,18.60
2022-11-21T22:39:12.166Z,20.83
2022-11-21T22:41:40.438Z,25.58
2022-11-21T22:44:08.146Z,21.95
2022-11-21T22:46:35.796Z,23.02
2022-11-21T22:49:04.549Z,21.73
2022-11-21T22:51:36.893Z,28.42
2022-11-21T22:54:05.145Z,26.63
2022-11-21T22:56:33.440Z,20.70
2022-11-21T22:59:03.974Z,22.20
2022-11-21T23:04:02.711Z,19.38
2022-11-21T23:06:30.728Z,19.10
2022-11-21T23:08:58.784Z,25.33
2022-11-21T23:11:33.736Z,19.08
2022-11-21T23:14:04.513Z,28.67
2022-11-21T23:16:32.804Z,19.27
2022-11-21T23:19:00.321Z,20.90
2022-11-21T23:21:27.789Z,24.80
2022-11-21T23:23:55.574Z,17.80
2022-11-21T23:26:23.335Z,18.40
2022-11-21T23:28:51.059Z,19.73
2022-11-21T23:31:18.629Z,19.42
2022-11-21T23:33:48.266Z,22.58
2022-11-21T23:36:15.858Z,20.93
2022-11-21T23:38:44.363Z,26.42
2022-11-21T23:41:11.729Z,32.50
2022-11-21T23:43:39.991Z,28.70
2022-11-21T23:46:07.428Z,21.02
2022-11-21T23:48:34.834Z,29.38
2022-11-21T23:51:04.120Z,26.58
2022-11-21T23:53:32.301Z,24.63
2022-11-21T23:56:00.157Z,24.45
2022-11-21T23:58:29.882Z,24.52
